createdAt,value
2018-08-31T00:01:46.366Z,100.00
2018-08-31T00:06:39.678Z,100.00
2018-08-31T00:10:18.173Z,100.00
2018-08-31T00:12:47.714Z,100.00
2018-08-31T00:15:16.692Z,100.00
2018-08-31T00:17:45.644Z,100.00
2018-08-31T00:20:15.359Z,100.00
2018-08-31T00:22:44.415Z,100.00
2018-08-31T00:26:24.451Z,100.00
2018-08-31T00:29:43.808Z,100.00
2018-08-31T00:33:26.184Z,100.00
2018-08-31T00:36:39.565Z,100.00
2018-08-31T00:40:34.896Z,100.00
2018-08-31T00:44:26.883Z,100.00
2018-08-31T00:46:55.886Z,100.00
2018-08-31T00:49:24.942Z,100.00
2018-08-31T00:51:54.025Z,100.00
2018-08-31T00:54:23.077Z,100.00
2018-08-31T00:56:52.016Z,100.00
2018-08-31T00:59:21.089Z,100.00
2018-08-31T01:01:50.092Z,100.00
2018-08-31T01:04:19.177Z,100.00
2018-08-31T01:06:48.233Z,100.00
2018-08-31T01:09:17.245Z,100.00
2018-08-31T01:11:46.331Z,100.00
2018-08-31T01:14:15.332Z,100.00
2018-08-31T01:16:44.321Z,100.00
2018-08-31T01:19:13.321Z,100.00
2018-08-31T01:21:42.381Z,100.00
2018-08-31T01:24:11.357Z,100.00
2018-08-31T01:26:40.381Z,100.00
2018-08-31T01:29:09.328Z,100.00
2018-08-31T01:31:38.377Z,100.00
2018-08-31T01:34:07.372Z,100.00
2018-08-31T01:36:36.320Z,100.00
2018-08-31T01:39:06.484Z,100.00
2018-08-31T01:41:35.545Z,100.00
2018-08-31T01:44:04.570Z,100.00
2018-08-31T01:46:33.645Z,100.00
2018-08-31T01:49:02.804Z,100.00
2018-08-31T01:51:31.759Z,100.00
2018-08-31T01:54:00.761Z,100.00
2018-08-31T01:56:29.837Z,100.00
2018-08-31T01:58:58.860Z,100.00
2018-08-31T02:01:27.852Z,100.00
2018-08-31T02:03:59.238Z,100.00
2018-08-31T02:06:28.208Z,100.00
2018-08-31T02:09:18.160Z,100.00
2018-08-31T02:11:48.074Z,100.00
2018-08-31T02:14:17.015Z,100.00
2018-08-31T02:16:46.076Z,100.00
2018-08-31T02:19:15.194Z,100.00
2018-08-31T02:21:44.135Z,100.00
2018-08-31T02:24:13.313Z,100.00
2018-08-31T02:26:42.268Z,100.00
2018-08-31T02:29:11.286Z,100.00
2018-08-31T02:31:40.251Z,100.00
2018-08-31T02:34:09.379Z,100.00
2018-08-31T02:36:38.388Z,100.00
2018-08-31T02:39:07.974Z,100.00
2018-08-31T02:41:37.014Z,100.00
2018-08-31T02:44:06.024Z,100.00
2018-08-31T02:46:35.000Z,100.00
2018-08-31T02:49:04.014Z,100.00
2018-08-31T02:51:33.056Z,100.00
2018-08-31T02:54:02.079Z,100.00
2018-08-31T02:56:31.094Z,100.00
2018-08-31T02:59:00.113Z,100.00
2018-08-31T03:01:29.052Z,100.00
2018-08-31T03:03:58.033Z,100.00
2018-08-31T03:06:26.987Z,100.00
2018-08-31T03:08:56.060Z,100.00
2018-08-31T03:11:25.455Z,100.00
2018-08-31T03:13:54.454Z,100.00
2018-08-31T03:16:23.470Z,100.00
2018-08-31T03:18:52.428Z,100.00
2018-08-31T03:21:21.541Z,100.00
2018-08-31T03:23:50.564Z,100.00
2018-08-31T03:26:19.511Z,100.00
2018-08-31T03:28:48.637Z,100.00
2018-08-31T03:31:17.652Z,100.00
2018-08-31T03:33:46.673Z,100.00
2018-08-31T03:36:15.693Z,100.00
2018-08-31T03:38:44.695Z,100.00
2018-08-31T03:41:13.809Z,100.00
2018-08-31T03:43:42.937Z,100.00
2018-08-31T03:46:12.012Z,100.00
2018-08-31T03:48:41.044Z,100.00
2018-08-31T03:51:11.781Z,100.00
2018-08-31T03:53:40.812Z,100.00
2018-08-31T03:56:09.816Z,100.00
2018-08-31T03:58:38.796Z,100.00
2018-08-31T04:01:07.861Z,100.00
2018-08-31T04:03:36.936Z,100.00
2018-08-31T04:06:05.937Z,100.00
2018-08-31T04:08:34.920Z,100.00
2018-08-31T04:11:03.924Z,100.00
2018-08-31T04:13:32.946Z,100.00
2018-08-31T04:16:01.969Z,100.00
2018-08-31T04:18:31.000Z,100.00
2018-08-31T04:21:00.011Z,100.00
2018-08-31T04:23:29.037Z,100.00
2018-08-31T04:25:58.194Z,100.00
2018-08-31T04:28:27.221Z,100.00
2018-08-31T04:30:56.240Z,100.00
2018-08-31T04:33:25.274Z,100.00
2018-08-31T04:35:54.300Z,100.00
2018-08-31T04:38:23.397Z,97.45
2018-08-31T04:40:52.562Z,92.59
2018-08-31T04:43:21.596Z,87.71
2018-08-31T04:45:50.621Z,82.36
2018-08-31T04:48:19.701Z,79.05
2018-08-31T04:50:48.869Z,73.25
2018-08-31T04:53:17.908Z,70.47
2018-08-31T04:55:47.033Z,68.08
2018-08-31T04:58:16.067Z,66.40
2018-08-31T05:00:45.091Z,63.17
2018-08-31T05:03:14.207Z,60.22
2018-08-31T05:05:43.189Z,58.08
2018-08-31T05:08:12.164Z,56.68
2018-08-31T05:10:41.156Z,55.00
2018-08-31T05:13:10.187Z,52.86
2018-08-31T05:15:39.359Z,51.78
2018-08-31T05:18:08.319Z,49.60
2018-08-31T05:20:37.315Z,48.89
2018-08-31T05:23:06.390Z,49.44
2018-08-31T05:25:35.382Z,49.62
2018-08-31T05:28:04.339Z,49.93
2018-08-31T05:30:33.288Z,49.72
2018-08-31T05:33:02.260Z,49.92
2018-08-31T05:35:31.322Z,51.32
2018-08-31T05:38:00.358Z,54.75
2018-08-31T05:40:29.385Z,56.00
2018-08-31T05:42:58.480Z,59.41
2018-08-31T05:45:27.580Z,62.50
2018-08-31T05:47:56.589Z,62.22
2018-08-31T05:50:25.676Z,62.10
2018-08-31T05:52:54.756Z,60.64
2018-08-31T05:55:38.488Z,56.04
2018-08-31T05:58:07.467Z,53.48
2018-08-31T06:00:36.616Z,50.20
2018-08-31T06:03:05.584Z,48.76
2018-08-31T06:05:34.591Z,50.24
2018-08-31T06:08:03.612Z,53.22
2018-08-31T06:10:32.603Z,54.76
2018-08-31T06:13:01.688Z,56.11
2018-08-31T06:15:30.633Z,57.94
2018-08-31T06:17:59.810Z,61.66
2018-08-31T06:20:28.820Z,60.84
2018-08-31T06:22:57.836Z,58.93
2018-08-31T06:25:26.804Z,59.62
2018-08-31T06:27:55.747Z,59.88
2018-08-31T06:30:24.772Z,60.69
2018-08-31T06:32:53.748Z,59.12
2018-08-31T06:35:22.821Z,59.27
2018-08-31T06:37:51.777Z,59.41
2018-08-31T06:40:20.794Z,60.29
2018-08-31T06:42:49.772Z,60.35
2018-08-31T06:45:18.892Z,60.20
2018-08-31T06:47:47.932Z,60.86
2018-08-31T06:50:16.940Z,60.56
2018-08-31T06:52:46.031Z,60.56
2018-08-31T06:55:15.042Z,60.71
2018-08-31T06:57:44.050Z,63.98
2018-08-31T07:00:13.014Z,60.83
2018-08-31T07:02:42.035Z,61.93
2018-08-31T07:05:11.002Z,61.72
2018-08-31T07:07:40.290Z,61.11
2018-08-31T07:10:09.564Z,57.65
2018-08-31T07:12:38.576Z,56.92
2018-08-31T07:15:08.164Z,58.87
2018-08-31T07:17:37.308Z,60.05
2018-08-31T07:20:06.505Z,57.10
2018-08-31T07:22:35.521Z,56.46
2018-08-31T07:25:04.536Z,56.10
2018-08-31T07:27:33.679Z,55.84
2018-08-31T07:30:02.637Z,54.89
2018-08-31T07:32:31.707Z,56.34
2018-08-31T07:35:00.772Z,52.01
2018-08-31T07:37:29.736Z,52.52
2018-08-31T07:39:58.713Z,50.72
2018-08-31T07:42:27.737Z,50.87
2018-08-31T07:44:56.809Z,52.43
2018-08-31T07:47:25.760Z,48.31
2018-08-31T07:49:54.824Z,49.75
2018-08-31T07:52:23.855Z,48.75
2018-08-31T07:54:52.935Z,50.13
2018-08-31T07:57:22.024Z,50.65
2018-08-31T07:59:51.037Z,46.24
2018-08-31T08:02:20.183Z,48.01
2018-08-31T08:04:49.132Z,46.99
2018-08-31T08:07:18.091Z,47.87
2018-08-31T08:09:47.216Z,46.87
2018-08-31T08:12:16.237Z,47.92
2018-08-31T08:14:45.261Z,46.32
2018-08-31T08:17:14.244Z,47.55
2018-08-31T08:19:43.356Z,44.52
2018-08-31T08:22:12.309Z,47.18
2018-08-31T08:24:41.264Z,46.46
2018-08-31T08:27:10.370Z,44.80
2018-08-31T08:29:39.350Z,46.47
2018-08-31T08:32:08.368Z,46.05
2018-08-31T08:34:37.338Z,45.52
2018-08-31T08:37:06.417Z,44.00
2018-08-31T08:39:35.497Z,45.84
2018-08-31T08:42:04.510Z,44.04
2018-08-31T08:44:33.538Z,44.54
2018-08-31T08:47:02.500Z,43.35
2018-08-31T08:49:31.476Z,47.32
2018-08-31T08:52:00.484Z,44.49
2018-08-31T08:54:29.588Z,43.62
2018-08-31T08:56:58.613Z,43.67
2018-08-31T08:59:27.561Z,42.25
2018-08-31T09:01:56.588Z,42.02
2018-08-31T09:04:25.600Z,41.49
2018-08-31T09:06:54.612Z,42.87
2018-08-31T09:09:23.584Z,40.37
2018-08-31T09:11:52.673Z,41.90
2018-08-31T09:14:21.676Z,40.46
2018-08-31T09:16:50.685Z,42.37
2018-08-31T09:19:19.712Z,40.64
2018-08-31T09:21:48.741Z,37.64
2018-08-31T09:24:17.725Z,39.75
2018-08-31T09:26:46.684Z,39.28
2018-08-31T09:29:18.216Z,38.16
2018-08-31T09:31:47.276Z,36.75
2018-08-31T09:34:16.295Z,40.84
2018-08-31T09:36:45.317Z,36.36
2018-08-31T09:39:14.379Z,36.09
2018-08-31T09:41:43.493Z,36.58
2018-08-31T09:44:12.509Z,35.80
2018-08-31T09:46:41.485Z,35.74
2018-08-31T09:49:10.504Z,36.15
2018-08-31T09:51:39.651Z,36.09
2018-08-31T09:54:08.641Z,32.72
2018-08-31T09:56:37.664Z,35.62
2018-08-31T09:59:06.624Z,36.40
2018-08-31T10:01:36.702Z,33.79
2018-08-31T10:04:05.706Z,33.08
2018-08-31T10:06:35.204Z,32.98
2018-08-31T10:09:05.039Z,32.12
2018-08-31T10:11:34.010Z,31.74
2018-08-31T10:14:03.033Z,33.94
2018-08-31T10:16:31.978Z,31.18
2018-08-31T10:19:00.924Z,32.55
2018-08-31T10:21:29.937Z,30.33
2018-08-31T10:23:58.904Z,31.64
2018-08-31T10:26:27.925Z,31.23
2018-08-31T10:28:56.977Z,30.73
2018-08-31T10:31:26.004Z,31.59
2018-08-31T10:33:54.948Z,30.84
2018-08-31T10:36:24.015Z,29.98
2018-08-31T10:38:52.991Z,32.17
2018-08-31T10:41:22.042Z,28.48
2018-08-31T10:43:51.078Z,28.06
2018-08-31T10:46:20.154Z,27.40
2018-08-31T10:48:49.170Z,28.22
2018-08-31T10:51:18.192Z,29.76
2018-08-31T10:53:47.144Z,28.25
2018-08-31T10:56:16.132Z,27.42
2018-08-31T10:58:45.093Z,25.81
2018-08-31T11:01:14.051Z,24.34
2018-08-31T11:03:42.988Z,23.49
2018-08-31T11:06:12.069Z,23.75
2018-08-31T11:08:41.033Z,22.20
2018-08-31T11:11:10.150Z,20.81
2018-08-31T11:13:39.316Z,22.60
2018-08-31T11:16:08.345Z,21.27
2018-08-31T11:18:37.320Z,21.38
2018-08-31T11:21:06.267Z,21.94
2018-08-31T11:23:35.487Z,20.70
2018-08-31T11:26:04.509Z,20.80
2018-08-31T11:28:33.517Z,20.47
2018-08-31T11:31:02.564Z,19.59
2018-08-31T11:33:31.574Z,18.76
2018-08-31T11:36:00.602Z,20.76
2018-08-31T11:38:29.565Z,16.77
2018-08-31T11:40:58.628Z,17.97
2018-08-31T11:43:27.700Z,17.21
2018-08-31T11:45:56.719Z,18.38
2018-08-31T11:48:25.757Z,17.72
2018-08-31T11:50:54.767Z,17.34
2018-08-31T11:53:23.762Z,17.28
2018-08-31T11:55:52.716Z,17.52
2018-08-31T11:58:21.739Z,16.44
2018-08-31T12:00:50.783Z,17.66
2018-08-31T12:03:19.856Z,17.65
2018-08-31T12:05:48.823Z,17.82
2018-08-31T12:08:17.895Z,17.28
2018-08-31T12:10:46.972Z,16.81
2018-08-31T12:13:15.936Z,16.09
2018-08-31T12:15:44.964Z,17.72
2018-08-31T12:18:13.968Z,16.18
2018-08-31T12:20:42.929Z,16.62
2018-08-31T12:23:11.917Z,15.52
2018-08-31T12:25:40.893Z,16.70
2018-08-31T12:28:09.869Z,15.91
2018-08-31T12:30:38.860Z,16.51
2018-08-31T12:33:07.905Z,17.37
2018-08-31T12:35:37.034Z,16.79
2018-08-31T12:38:06.124Z,16.78
2018-08-31T12:40:35.124Z,15.50
2018-08-31T12:43:04.079Z,16.43
2018-08-31T12:45:33.107Z,14.92
2018-08-31T12:48:02.165Z,14.94
2018-08-31T12:50:31.204Z,15.10
2018-08-31T12:53:00.228Z,15.92
2018-08-31T12:55:29.241Z,15.79
2018-08-31T12:57:58.254Z,17.25
2018-08-31T13:00:27.196Z,18.18
2018-08-31T13:02:56.350Z,19.03
2018-08-31T13:05:25.292Z,21.42
2018-08-31T13:07:54.230Z,20.81
2018-08-31T13:10:23.205Z,19.69
2018-08-31T13:12:52.229Z,23.17
2018-08-31T13:15:21.263Z,22.34
2018-08-31T13:17:50.273Z,24.30
2018-08-31T13:20:19.540Z,23.86
2018-08-31T13:22:48.604Z,23.66
2018-08-31T13:25:17.838Z,23.99
2018-08-31T13:27:46.885Z,27.33
2018-08-31T13:30:15.884Z,27.39
2018-08-31T13:32:44.927Z,27.17
2018-08-31T13:35:13.988Z,25.52
2018-08-31T13:37:43.079Z,26.03
2018-08-31T13:40:12.048Z,26.02
2018-08-31T13:42:41.074Z,26.85
2018-08-31T13:45:10.041Z,26.86
2018-08-31T13:47:39.034Z,25.78
2018-08-31T13:50:08.100Z,26.92
2018-08-31T13:52:37.149Z,27.56
2018-08-31T13:55:06.191Z,26.54
2018-08-31T13:57:35.145Z,26.96
2018-08-31T14:00:04.269Z,26.14
2018-08-31T14:02:33.284Z,26.20
2018-08-31T14:05:02.329Z,26.86
2018-08-31T14:07:31.398Z,27.68
2018-08-31T14:10:00.474Z,26.53
2018-08-31T14:12:29.603Z,26.97
2018-08-31T14:14:58.609Z,28.50
2018-08-31T14:17:27.600Z,27.03
2018-08-31T14:19:56.606Z,27.71
2018-08-31T14:22:25.630Z,26.99
2018-08-31T14:24:54.806Z,28.25
2018-08-31T14:27:23.959Z,27.93
2018-08-31T14:29:53.200Z,28.15
2018-08-31T14:32:22.193Z,28.04
2018-08-31T14:34:51.166Z,28.30
2018-08-31T14:37:20.196Z,28.08
2018-08-31T14:39:49.293Z,28.20
2018-08-31T14:42:18.360Z,29.82
2018-08-31T14:44:47.360Z,30.07
2018-08-31T14:47:16.448Z,31.13
2018-08-31T14:49:45.627Z,32.28
2018-08-31T14:52:14.592Z,30.64
2018-08-31T14:54:43.636Z,31.15
2018-08-31T14:57:12.712Z,30.78
2018-08-31T14:59:41.684Z,28.45
2018-08-31T15:02:10.650Z,28.36
2018-08-31T15:04:39.684Z,30.33
2018-08-31T15:07:08.690Z,31.09
2018-08-31T15:09:37.828Z,31.73
2018-08-31T15:12:06.897Z,31.58
2018-08-31T15:14:35.908Z,29.84
2018-08-31T15:17:05.128Z,30.81
2018-08-31T15:19:34.189Z,30.34
2018-08-31T15:22:03.364Z,30.69
2018-08-31T15:24:32.316Z,29.38
2018-08-31T15:27:01.281Z,30.42
2018-08-31T15:29:30.265Z,31.30
2018-08-31T15:31:59.348Z,31.56
2018-08-31T15:34:28.368Z,30.51
2018-08-31T15:36:57.406Z,29.97
2018-08-31T15:39:26.480Z,29.28
2018-08-31T15:41:55.585Z,31.54
2018-08-31T15:44:24.800Z,31.65
2018-08-31T15:46:53.821Z,32.34
2018-08-31T15:49:22.802Z,32.58
2018-08-31T15:51:51.776Z,33.49
2018-08-31T15:54:20.788Z,33.41
2018-08-31T15:56:49.822Z,33.37
2018-08-31T15:59:18.795Z,33.85
2018-08-31T16:01:47.831Z,35.67
2018-08-31T16:04:16.858Z,37.58
2018-08-31T16:06:45.840Z,41.21
2018-08-31T16:09:14.933Z,47.02
2018-08-31T16:11:43.896Z,48.39
2018-08-31T16:14:12.936Z,49.57
2018-08-31T16:16:41.876Z,50.94
2018-08-31T16:19:10.881Z,52.44
2018-08-31T16:21:39.899Z,53.25
2018-08-31T16:24:08.898Z,55.01
2018-08-31T16:26:37.924Z,56.50
2018-08-31T16:29:07.086Z,53.92
2018-08-31T16:31:36.123Z,56.45
2018-08-31T16:34:05.216Z,54.21
2018-08-31T16:36:34.197Z,54.79
2018-08-31T16:39:03.462Z,56.00
2018-08-31T16:41:32.436Z,57.38
2018-08-31T16:44:01.446Z,58.02
2018-08-31T16:46:30.391Z,58.92
2018-08-31T16:48:59.488Z,59.56
2018-08-31T16:51:28.462Z,60.21
2018-08-31T16:53:57.470Z,61.35
2018-08-31T16:56:26.431Z,60.76
2018-08-31T16:58:55.429Z,63.32
2018-08-31T17:01:24.405Z,63.08
2018-08-31T17:03:53.403Z,61.99
2018-08-31T17:06:22.429Z,62.81
2018-08-31T17:08:51.376Z,62.68
2018-08-31T17:11:20.489Z,62.97
2018-08-31T17:13:49.432Z,64.01
2018-08-31T17:16:18.446Z,64.52
2018-08-31T17:18:47.420Z,64.73
2018-08-31T17:21:16.472Z,65.04
2018-08-31T17:23:45.456Z,63.50
2018-08-31T17:28:21.437Z,62.59
2018-08-31T17:30:54.597Z,63.03
2018-08-31T17:33:28.641Z,62.62
2018-08-31T17:36:02.801Z,61.67
2018-08-31T17:38:31.913Z,61.98
2018-08-31T17:41:00.927Z,61.06
2018-08-31T17:43:29.975Z,60.92
2018-08-31T17:45:59.617Z,61.04
2018-08-31T17:48:28.716Z,61.25
2018-08-31T17:50:57.822Z,61.27
2018-08-31T17:53:26.810Z,61.80
2018-08-31T17:55:55.769Z,62.21
2018-08-31T17:58:24.817Z,62.70
2018-08-31T18:00:53.857Z,62.43
2018-08-31T18:03:22.839Z,61.85
2018-08-31T18:05:51.873Z,62.43
2018-08-31T18:08:20.970Z,61.96
2018-08-31T18:10:49.960Z,62.84
2018-08-31T18:13:18.920Z,62.93
2018-08-31T18:15:48.027Z,64.24
2018-08-31T18:18:17.085Z,64.44
2018-08-31T18:20:46.181Z,65.17
2018-08-31T18:23:15.241Z,64.86
2018-08-31T18:25:44.378Z,63.46
2018-08-31T18:28:13.408Z,65.34
2018-08-31T18:30:42.432Z,65.85
2018-08-31T18:33:11.587Z,65.88
2018-08-31T18:35:40.745Z,66.21
2018-08-31T18:38:09.771Z,67.02
2018-08-31T18:40:38.898Z,66.96
2018-08-31T18:43:07.972Z,66.85
2018-08-31T18:45:37.020Z,67.68
2018-08-31T18:48:06.057Z,67.55
2018-08-31T18:50:35.048Z,67.26
2018-08-31T18:53:04.133Z,66.13
2018-08-31T18:55:33.212Z,67.72
2018-08-31T18:58:02.359Z,68.16
2018-08-31T19:00:31.400Z,70.03
2018-08-31T19:03:00.351Z,68.54
2018-08-31T19:05:29.466Z,67.78
2018-08-31T19:07:58.467Z,68.83
2018-08-31T19:10:27.502Z,69.58
2018-08-31T19:12:56.915Z,69.12
2018-08-31T19:15:25.896Z,70.65
2018-08-31T19:17:54.990Z,69.63
2018-08-31T19:20:24.014Z,69.59
2018-08-31T19:22:52.980Z,70.62
2018-08-31T19:25:21.974Z,71.04
2018-08-31T19:27:50.948Z,70.37
2018-08-31T19:30:19.968Z,71.81
2018-08-31T19:32:48.936Z,71.19
2018-08-31T19:35:18.070Z,70.93
2018-08-31T19:37:47.107Z,71.75
2018-08-31T19:40:16.060Z,71.52
2018-08-31T19:42:45.029Z,72.67
2018-08-31T19:45:14.098Z,73.27
2018-08-31T19:47:43.106Z,73.11
2018-08-31T19:50:12.156Z,73.18
2018-08-31T19:52:41.232Z,73.91
2018-08-31T19:55:10.320Z,73.66
2018-08-31T19:57:39.300Z,73.76
2018-08-31T20:00:08.489Z,74.62
2018-08-31T20:02:37.460Z,76.07
2018-08-31T20:05:06.598Z,74.72
2018-08-31T20:07:35.584Z,75.73
2018-08-31T20:10:04.605Z,76.51
2018-08-31T20:12:33.632Z,77.50
2018-08-31T20:15:02.601Z,76.31
2018-08-31T20:17:31.620Z,77.15
2018-08-31T20:20:00.632Z,76.82
2018-08-31T20:22:29.732Z,77.07
2018-08-31T20:24:58.700Z,76.95
2018-08-31T20:27:27.705Z,77.30
2018-08-31T20:29:56.680Z,77.56
2018-08-31T20:32:25.632Z,77.33
2018-08-31T20:34:54.662Z,77.13
2018-08-31T20:37:23.628Z,76.73
2018-08-31T20:39:52.755Z,75.91
2018-08-31T20:42:21.837Z,75.42
2018-08-31T20:44:50.880Z,75.57
2018-08-31T20:47:19.920Z,76.32
2018-08-31T20:49:48.855Z,76.06
2018-08-31T20:52:17.894Z,76.47
2018-08-31T20:54:46.921Z,75.86
2018-08-31T20:57:16.004Z,77.66
2018-08-31T20:59:45.021Z,76.25
2018-08-31T21:02:14.060Z,76.41
2018-08-31T21:04:43.101Z,75.82
2018-08-31T21:07:12.063Z,75.57
2018-08-31T21:09:41.100Z,75.81
2018-08-31T21:12:10.188Z,76.05
2018-08-31T21:14:39.276Z,76.47
2018-08-31T21:17:08.248Z,75.85
2018-08-31T21:19:37.260Z,75.38
2018-08-31T21:22:06.224Z,76.82
2018-08-31T21:24:35.236Z,76.31
2018-08-31T21:27:04.258Z,76.86
2018-08-31T21:29:33.273Z,76.81
2018-08-31T21:32:02.379Z,77.75
2018-08-31T21:34:31.325Z,77.35
2018-08-31T21:37:00.268Z,77.50
2018-08-31T21:39:29.271Z,78.66
2018-08-31T21:41:58.272Z,79.08
2018-08-31T21:44:27.223Z,78.86
2018-08-31T21:46:56.246Z,78.47
2018-08-31T21:49:25.337Z,79.20
2018-08-31T21:51:54.284Z,79.22
2018-08-31T21:54:23.421Z,79.62
2018-08-31T21:56:52.445Z,81.03
2018-08-31T21:59:21.454Z,80.43
2018-08-31T22:01:55.461Z,81.52
2018-08-31T22:04:25.089Z,82.43
2018-08-31T22:06:54.221Z,83.04
2018-08-31T22:09:23.179Z,83.53
2018-08-31T22:11:52.211Z,83.70
2018-08-31T22:14:21.233Z,83.33
2018-08-31T22:16:50.317Z,84.51
2018-08-31T22:19:19.277Z,83.28
2018-08-31T22:21:48.320Z,84.13
2018-08-31T22:24:17.433Z,84.25
2018-08-31T22:26:46.375Z,85.28
2018-08-31T22:29:15.404Z,85.40
2018-08-31T22:31:44.360Z,85.45
2018-08-31T22:34:13.376Z,85.85
2018-08-31T22:36:42.324Z,86.76
2018-08-31T22:39:11.407Z,86.22
2018-08-31T22:41:40.432Z,86.50
2018-08-31T22:44:09.408Z,87.34
2018-08-31T22:46:38.420Z,87.37
2018-08-31T22:49:07.380Z,86.47
2018-08-31T22:51:36.471Z,86.27
2018-08-31T22:54:05.450Z,86.81
2018-08-31T22:56:34.401Z,86.97
2018-08-31T22:59:03.427Z,86.78
2018-08-31T23:01:32.396Z,87.05
2018-08-31T23:04:01.369Z,86.36
2018-08-31T23:06:30.388Z,87.02
2018-08-31T23:08:59.528Z,86.73
2018-08-31T23:11:28.541Z,86.64
2018-08-31T23:13:57.617Z,86.13
2018-08-31T23:16:26.555Z,86.42
2018-08-31T23:18:55.561Z,85.82
2018-08-31T23:21:24.543Z,86.55
2018-08-31T23:23:53.559Z,86.14
2018-08-31T23:26:22.594Z,86.22
2018-08-31T23:28:51.555Z,86.77
2018-08-31T23:31:20.652Z,86.62
2018-08-31T23:33:49.700Z,85.54
2018-08-31T23:36:18.647Z,85.78
2018-08-31T23:38:47.667Z,86.56
2018-08-31T23:41:16.917Z,86.83
2018-08-31T23:43:46.795Z,87.45
2018-08-31T23:46:15.812Z,87.33
2018-08-31T23:48:44.844Z,87.20
2018-08-31T23:51:13.793Z,86.81
2018-08-31T23:53:42.785Z,88.18
2018-08-31T23:56:11.824Z,87.29
2018-08-31T23:58:40.816Z,87.11
